Thunder radar more information blitzortung!


Radar de pluja more information rain snow radar


Visita la nostra xarxa de llocs de meteo:

Template documentation
and downloads

And another site



No particular awareness of the weather is required.    There are no Weather-warnings

Pagina Historial Weather Underground text

Diari Resum Marc 9, 2016 Unitats:  Mètric    Imperial   Tant
« Previous Dia
SegĂźent Dia »
Diari Setmana Mensual Anual Personalitzada
  Maxima: Minima: Media:
Temperatura: 9.2 °C 1.4 °C 6.8 °C
Punt de rosada: 3.4 °C -8.2 °C 0.4 °C
Humitat: 74 % 48 % 64 %
Wind Speed: 7.4 km/h 0.0 km/h 2.8 km/h
RĂ fegues de vent: 7.4 km/h - -
Vent:- - SSW
Pression baro: 1015.8 hPa 1006.0 hPa -
Precipitacions: 1.0 mm    
Historical Graphs
 
 
Dades de taula per Marc 9, 2016
Temps Temperatura Punt de rosada Pression baro Vent Wind Speed RĂ fegues de vent Humitat Rainfall Rate (Hourly)
00:05 1.7 °C -8.2 °C 1015.8 hPa Calm   3.2 km/h 48 % 0.0 mm
00:15 1.6 °C -8.2 °C 1015.8 hPa West 3.2 km/h 3.2 km/h 48 % 0.0 mm
00:25 1.8 °C -8.1 °C 1015.8 hPa WSW 1.6 km/h 3.2 km/h 48 % 0.0 mm
00:35 1.7 °C -8.2 °C 1015.8 hPa Calm   3.2 km/h 48 % 0.0 mm
00:45 1.7 °C -8.2 °C 1015.8 hPa ENE 1.6 km/h 3.2 km/h 48 % 0.0 mm
00:55 1.6 °C -8.0 °C 1015.8 hPa Calm     49 % 0.0 mm
01:05 1.8 °C -7.8 °C 1015.8 hPa WNW 1.6 km/h 3.2 km/h 49 % 0.0 mm
01:15 1.4 °C -7.9 °C 1014.8 hPa North 1.6 km/h 6.4 km/h 50 % 0.0 mm
01:25 1.7 °C -7.9 °C 1014.8 hPa ESE 3.2 km/h 3.2 km/h 49 % 0.0 mm
01:35 1.9 °C -7.4 °C 1015.8 hPa East 1.6 km/h 6.4 km/h 50 % 0.0 mm
01:45 2.9 °C -6.3 °C 1015.8 hPa East 1.6 km/h 3.2 km/h 51 % 0.0 mm
01:55 3.4 °C -5.8 °C 1015.8 hPa NE 3.2 km/h 3.2 km/h 51 % 0.0 mm
02:05 3.1 °C -6.1 °C 1014.8 hPa West 1.6 km/h 3.2 km/h 51 % 0.0 mm
02:15 3.6 °C -5.6 °C 1015.8 hPa WSW 1.6 km/h 3.2 km/h 51 % 0.0 mm
02:25 3.9 °C -5.1 °C 1015.8 hPa WSW 1.6 km/h 3.2 km/h 52 % 0.0 mm
02:35 4.7 °C -3.8 °C 1014.8 hPa West 3.2 km/h 4.8 km/h 54 % 0.0 mm
02:45 5.1 °C -3.2 °C 1014.8 hPa West 1.6 km/h 4.8 km/h 55 % 0.0 mm
02:55 4.6 °C -4.2 °C 1014.8 hPa NE 1.6 km/h 1.6 km/h 53 % 0.0 mm
03:05 5.4 °C -2.9 °C 1014.8 hPa WSW 3.2 km/h 6.4 km/h 55 % 0.0 mm
03:15 5.8 °C -2.3 °C 1014.8 hPa WSW 1.6 km/h 4.8 km/h 56 % 0.0 mm
03:25 6.1 °C -2.1 °C 1014.8 hPa WSW 1.6 km/h 3.2 km/h 56 % 0.0 mm
03:35 6.3 °C -1.8 °C 1014.8 hPa SW 3.2 km/h 3.2 km/h 56 % 0.0 mm
03:45 6.6 °C -1.6 °C 1013.8 hPa WSW 3.2 km/h 3.2 km/h 56 % 0.0 mm
03:55 6.9 °C -1.1 °C 1013.8 hPa WSW 3.2 km/h 6.4 km/h 57 % 0.0 mm
04:05 6.4 °C -1.8 °C 1013.8 hPa North 4.8 km/h 6.4 km/h 56 % 0.0 mm
04:15 6.2 °C -2.2 °C 1013.8 hPa NE 3.2 km/h 4.8 km/h 55 % 0.0 mm
04:25 6.2 °C -2.2 °C 1013.8 hPa Calm   4.8 km/h 55 % 0.0 mm
10:26 6.2 °C -2.2 °C 1013.8 hPa NE 5.6 km/h 5.6 km/h 55 % 0.0 mm
10:31 6.0 °C -2.4 °C 1013.8 hPa NNE 3.7 km/h 3.9 km/h 55 % 0.0 mm
10:36 6.1 °C -2.3 °C 1013.8 hPa ENE 2.3 km/h 2.3 km/h 55 % 0.0 mm
10:41 6.1 °C -2.3 °C 1013.8 hPa ENE 4.7 km/h 4.7 km/h 55 % 0.0 mm
10:46 6.1 °C -2.3 °C 1013.8 hPa NNE 4.2 km/h 4.2 km/h 55 % 0.0 mm
10:51 6.2 °C -2.2 °C 1013.8 hPa East 3.7 km/h   55 % 0.0 mm
10:56 6.2 °C -2.2 °C 1013.8 hPa NE 3.7 km/h   55 % 0.0 mm
11:01 6.3 °C -2.1 °C 1013.8 hPa NNE 1.9 km/h 1.9 km/h 55 % 0.0 mm
11:06 6.4 °C -2.0 °C 1013.8 hPa NNE 1.9 km/h   55 % 0.0 mm
11:11 6.4 °C -2.0 °C 1012.8 hPa NNE 1.9 km/h   55 % 0.0 mm
11:16 6.3 °C -2.1 °C 1012.8 hPa ENE 2.3 km/h 2.3 km/h 55 % 0.0 mm
11:21 6.4 °C -2.0 °C 1012.8 hPa NNE 3.7 km/h 3.7 km/h 55 % 0.0 mm
11:26 6.5 °C -1.9 °C 1011.7 hPa NW 2.3 km/h 2.3 km/h 55 % 0.0 mm
11:31 7.0 °C -1.2 °C 1011.7 hPa SW 3.7 km/h 3.7 km/h 56 % 0.0 mm
11:36 7.4 °C -0.8 °C 1011.7 hPa West 3.7 km/h 3.7 km/h 56 % 0.0 mm
11:41 7.7 °C -0.6 °C 1011.7 hPa West 5.6 km/h 5.6 km/h 56 % 0.0 mm
11:46 7.8 °C -0.4 °C 1011.7 hPa WSW 3.2 km/h 3.2 km/h 56 % 0.0 mm
11:51 7.9 °C -0.3 °C 1011.7 hPa WSW 3.7 km/h 3.7 km/h 56 % 0.0 mm
11:56 8.0 °C -0.3 °C 1011.7 hPa WSW 4.7 km/h   56 % 0.0 mm
12:01 8.0 °C -0.3 °C 1011.7 hPa WSW 5.6 km/h 5.6 km/h 56 % 0.0 mm
12:06 8.1 °C -0.2 °C 1011.7 hPa WSW 3.7 km/h 3.7 km/h 56 % 0.0 mm
12:11 8.1 °C -0.4 °C 1011.7 hPa WSW 5.6 km/h 5.6 km/h 55 % 0.0 mm
12:16 8.0 °C -0.5 °C 1011.7 hPa WSW 3.7 km/h 3.7 km/h 55 % 0.0 mm
12:21 8.1 °C -0.4 °C 1011.7 hPa WSW 3.9 km/h 3.9 km/h 55 % 0.0 mm
12:31 8.2 °C -0.3 °C 1011.7 hPa WSW 3.7 km/h 3.7 km/h 55 % 0.0 mm
12:36 8.2 °C -0.3 °C 1011.7 hPa SW 7.4 km/h 7.4 km/h 55 % 0.0 mm
12:41 8.2 °C -0.3 °C 1011.7 hPa SW 3.7 km/h 3.7 km/h 55 % 0.0 mm
12:46 8.2 °C -0.3 °C 1011.7 hPa SW 2.6 km/h   55 % 0.0 mm
12:51 8.3 °C -0.2 °C 1011.7 hPa WSW 3.7 km/h 3.7 km/h 55 % 0.0 mm
12:56 8.2 °C -0.3 °C 1010.7 hPa WSW 4.7 km/h 4.7 km/h 55 % 0.0 mm
13:01 8.2 °C -0.1 °C 1010.7 hPa WSW 1.9 km/h 1.9 km/h 56 % 0.0 mm
13:06 8.1 °C 0.1 °C 1010.7 hPa WSW 3.2 km/h   57 % 0.0 mm
13:11 7.9 °C 0.1 °C 1010.7 hPa SW 1.9 km/h 1.9 km/h 58 % 0.0 mm
13:16 7.8 °C 0.3 °C 1010.7 hPa West 1.9 km/h   59 % 0.0 mm
13:21 7.7 °C 0.7 °C 1010.7 hPa WSW 1.9 km/h   61 % 0.0 mm
13:26 7.6 °C 0.6 °C 1010.0 hPa Calm     61 % 0.0 mm
13:31 7.4 °C 0.6 °C 1010.0 hPa Calm     62 % 0.0 mm
13:36 7.3 °C 0.5 °C 1010.0 hPa WSW 3.9 km/h 3.9 km/h 62 % 0.0 mm
13:41 7.1 °C 0.5 °C 1010.0 hPa WSW 3.9 km/h 3.9 km/h 63 % 0.0 mm
13:46 7.0 °C 0.7 °C 1010.0 hPa WSW 3.9 km/h 3.9 km/h 64 % 0.0 mm
13:51 7.0 °C 0.9 °C 1010.0 hPa WSW 3.9 km/h 3.9 km/h 65 % 0.0 mm
13:56 6.9 °C 0.8 °C 1010.0 hPa WSW 2.3 km/h 2.3 km/h 65 % 0.0 mm
14:01 6.8 °C 0.9 °C 1010.0 hPa SW 3.7 km/h 3.7 km/h 66 % 0.0 mm
14:06 6.7 °C 1.0 °C 1010.0 hPa WSW 1.9 km/h 1.9 km/h 67 % 0.0 mm
14:11 6.9 °C 1.6 °C 1010.0 hPa WSW 1.9 km/h   69 % 0.0 mm
14:16 7.0 °C 1.7 °C 1010.0 hPa Calm   1.9 km/h 69 % 0.0 mm
14:21 6.9 °C 1.6 °C 1010.0 hPa SW 3.7 km/h 3.7 km/h 69 % 0.0 mm
14:26 6.9 °C 1.6 °C 1009.0 hPa West 1.9 km/h 1.9 km/h 69 % 0.0 mm
14:31 7.1 °C 2.0 °C 1009.0 hPa WSW 1.9 km/h   70 % 0.0 mm
14:36 7.2 °C 2.1 °C 1009.0 hPa WSW 2.3 km/h   70 % 0.0 mm
14:41 7.3 °C 2.2 °C 1008.0 hPa South 3.7 km/h   70 % 0.0 mm
14:46 7.6 °C 2.7 °C 1008.0 hPa Calm     71 % 0.0 mm
14:51 7.8 °C 2.7 °C 1008.0 hPa West 4.2 km/h 4.2 km/h 70 % 0.0 mm
14:56 7.9 °C 2.8 °C 1008.0 hPa West 4.2 km/h 4.2 km/h 70 % 0.0 mm
15:01 8.0 °C 3.1 °C 1008.0 hPa West 2.3 km/h   71 % 0.0 mm
15:06 8.0 °C 2.8 °C 1008.0 hPa WSW 5.8 km/h 5.8 km/h 70 % 0.0 mm
15:11 8.1 °C 2.9 °C 1008.0 hPa WSW 3.7 km/h 3.7 km/h 70 % 0.0 mm
15:16 8.2 °C 3.1 °C 1008.0 hPa WSW 3.7 km/h 3.7 km/h 70 % 0.0 mm
15:21 8.2 °C 3.1 °C 1008.0 hPa WNW 2.3 km/h 3.2 km/h 70 % 0.0 mm
15:26 8.3 °C 3.2 °C 1008.0 hPa WNW 2.3 km/h 3.2 km/h 70 % 0.0 mm
15:31 8.3 °C 3.2 °C 1008.0 hPa SW 3.9 km/h 3.9 km/h 70 % 0.0 mm
15:36 8.2 °C 2.8 °C 1008.0 hPa SW 3.9 km/h 3.9 km/h 69 % 0.0 mm
15:41 8.2 °C 2.8 °C 1008.0 hPa SW 3.9 km/h 3.9 km/h 69 % 0.0 mm
15:46 8.2 °C 2.8 °C 1008.0 hPa SW 3.9 km/h 3.9 km/h 69 % 0.0 mm
15:51 8.2 °C 2.8 °C 1008.0 hPa SW 3.9 km/h 3.9 km/h 69 % 0.0 mm
15:56 8.2 °C 2.8 °C 1007.0 hPa SW 3.9 km/h 3.9 km/h 69 % 0.0 mm
16:01 8.4 °C 3.1 °C 1007.0 hPa SW 3.9 km/h 3.9 km/h 69 % 0.0 mm
16:06 8.6 °C 3.2 °C 1007.0 hPa SW 3.9 km/h 3.9 km/h 69 % 0.0 mm
16:11 8.7 °C 3.3 °C 1007.0 hPa SW 3.9 km/h 3.9 km/h 69 % 0.0 mm
16:16 8.7 °C 3.1 °C 1007.0 hPa SW 3.9 km/h 3.9 km/h 68 % 0.0 mm
16:21 8.6 °C 3.0 °C 1007.0 hPa SW 3.9 km/h 3.9 km/h 68 % 0.0 mm
16:26 8.6 °C 3.0 °C 1007.0 hPa SW 3.9 km/h 3.9 km/h 68 % 0.0 mm
16:31 8.6 °C 3.0 °C 1007.0 hPa SW 3.9 km/h 3.9 km/h 68 % 0.0 mm
16:36 8.7 °C 3.1 °C 1007.0 hPa SW 3.9 km/h 3.9 km/h 68 % 0.0 mm
16:41 8.7 °C 3.1 °C 1007.0 hPa SW 3.9 km/h 3.9 km/h 68 % 0.0 mm
16:46 8.7 °C 3.1 °C 1007.0 hPa SW 3.9 km/h 3.9 km/h 68 % 0.0 mm
16:51 8.7 °C 3.1 °C 1007.0 hPa SW 3.9 km/h 3.9 km/h 68 % 0.0 mm
16:56 8.7 °C 3.1 °C 1007.0 hPa SW 3.9 km/h 3.9 km/h 68 % 0.0 mm
17:01 8.7 °C 3.1 °C 1007.0 hPa SW 3.9 km/h 3.9 km/h 68 % 0.0 mm
17:06 8.7 °C 3.1 °C 1007.0 hPa SW 3.9 km/h 3.9 km/h 68 % 0.0 mm
17:11 8.7 °C 3.1 °C 1007.0 hPa West 4.7 km/h 4.7 km/h 68 % 0.0 mm
17:16 8.8 °C 3.2 °C 1007.0 hPa WSW 3.7 km/h 3.7 km/h 68 % 0.0 mm
17:21 8.9 °C 3.1 °C 1007.0 hPa WNW 7.4 km/h 7.4 km/h 67 % 0.0 mm
17:26 8.9 °C 3.1 °C 1006.0 hPa WSW 3.9 km/h 3.9 km/h 67 % 1.0 mm
17:31 9.0 °C 3.2 °C 1006.0 hPa WSW 1.9 km/h 3.2 km/h 67 % 1.0 mm
17:36 8.9 °C 3.1 °C 1006.0 hPa WSW 1.9 km/h 1.9 km/h 67 % 1.0 mm
17:41 8.9 °C 3.1 °C 1006.0 hPa WSW 2.6 km/h 2.6 km/h 67 % 1.0 mm
17:46 8.9 °C 3.1 °C 1006.0 hPa WNW 3.7 km/h   67 % 1.0 mm
17:51 8.9 °C 3.1 °C 1006.0 hPa WNW 1.9 km/h   67 % 1.0 mm
17:56 8.8 °C 3.0 °C 1006.0 hPa SW 5.6 km/h 5.6 km/h 67 % 1.0 mm
18:01 8.8 °C 3.0 °C 1006.0 hPa NNW 3.7 km/h   67 % 1.0 mm
18:06 8.9 °C 3.1 °C 1006.0 hPa NW 2.6 km/h 2.6 km/h 67 % 1.0 mm
18:11 9.1 °C 3.1 °C 1007.0 hPa NE 2.3 km/h 3.2 km/h 66 % 1.0 mm
18:16 9.2 °C 3.4 °C 1007.0 hPa NE 2.3 km/h 3.2 km/h 67 % 1.0 mm
18:21 9.2 °C 3.4 °C 1007.0 hPa NE 2.3 km/h 3.2 km/h 67 % 1.0 mm
18:26 8.9 °C 2.9 °C 1006.0 hPa NE 2.3 km/h 3.2 km/h 66 % 0.0 mm
18:31 8.8 °C 2.8 °C 1006.0 hPa NE 3.7 km/h 3.7 km/h 66 % 0.0 mm
18:36 8.7 °C 2.9 °C 1006.0 hPa NE 2.6 km/h 3.5 km/h 67 % 0.0 mm
18:41 8.7 °C 2.9 °C 1006.0 hPa NE 2.6 km/h 3.5 km/h 67 % 0.0 mm
18:46 8.7 °C 2.9 °C 1006.0 hPa ENE 3.7 km/h 3.7 km/h 67 % 0.0 mm
18:51 8.6 °C 2.8 °C 1006.0 hPa NE 3.7 km/h 3.7 km/h 67 % 0.0 mm
18:56 8.5 °C 2.7 °C 1006.0 hPa NE 3.7 km/h 3.7 km/h 67 % 0.0 mm
19:01 8.4 °C 2.6 °C 1006.0 hPa Calm     67 % 0.0 mm
19:06 8.3 °C 2.5 °C 1006.0 hPa Calm     67 % 0.0 mm
19:11 8.2 °C 2.4 °C 1006.0 hPa Calm     67 % 0.0 mm
19:16 8.1 °C 2.3 °C 1006.0 hPa Calm     67 % 0.0 mm
19:21 8.0 °C 2.4 °C 1006.0 hPa Calm     68 % 0.0 mm
19:26 8.0 °C 2.2 °C 1007.0 hPa Calm     67 % 0.0 mm
19:31 7.9 °C 2.3 °C 1007.0 hPa ENE 1.4 km/h 1.9 km/h 68 % 0.0 mm
19:36 7.8 °C 2.3 °C 1007.0 hPa NW 1.4 km/h   68 % 0.0 mm
19:41 7.7 °C 2.2 °C 1007.0 hPa Calm     68 % 0.0 mm
19:46 7.6 °C 2.1 °C 1007.0 hPa ENE 2.6 km/h 2.6 km/h 68 % 0.0 mm
19:51 7.5 °C 1.9 °C 1007.0 hPa ENE 2.3 km/h 2.3 km/h 68 % 0.0 mm
19:56 7.5 °C 1.9 °C 1007.0 hPa NE 3.7 km/h 3.7 km/h 68 % 0.0 mm
20:01 7.4 °C 2.1 °C 1007.0 hPa ENE 1.9 km/h 2.3 km/h 69 % 0.0 mm
20:06 7.4 °C 2.1 °C 1007.0 hPa ENE 1.9 km/h 1.9 km/h 69 % 0.0 mm
20:11 7.2 °C 1.9 °C 1007.0 hPa NE 3.2 km/h 3.2 km/h 69 % 0.0 mm
20:16 7.2 °C 1.9 °C 1007.0 hPa ENE 5.6 km/h 5.6 km/h 69 % 0.0 mm
20:21 7.1 °C 1.8 °C 1007.0 hPa East 3.7 km/h 3.7 km/h 69 % 0.0 mm
20:26 7.0 °C 1.7 °C 1007.0 hPa ENE 3.7 km/h 3.7 km/h 69 % 0.0 mm
20:31 6.9 °C 1.6 °C 1007.0 hPa ENE 3.7 km/h 3.7 km/h 69 % 0.0 mm
20:41 6.8 °C 1.5 °C 1007.0 hPa NE 5.6 km/h 5.6 km/h 69 % 0.0 mm
20:46 6.7 °C 1.4 °C 1007.0 hPa NE 5.0 km/h 5.0 km/h 69 % 0.0 mm
20:51 6.7 °C 1.4 °C 1007.0 hPa NNE 2.6 km/h 2.6 km/h 69 % 0.0 mm
20:56 6.6 °C 1.3 °C 1008.0 hPa NE 3.7 km/h 3.7 km/h 69 % 0.0 mm
21:01 6.5 °C 1.2 °C 1008.0 hPa NE 3.9 km/h 3.9 km/h 69 % 0.0 mm
21:06 6.5 °C 1.4 °C 1008.0 hPa NE 3.7 km/h 3.7 km/h 70 % 0.0 mm
21:11 6.5 °C 1.2 °C 1007.0 hPa NE 3.7 km/h 3.7 km/h 69 % 0.0 mm
21:16 6.4 °C 1.1 °C 1007.0 hPa Calm     69 % 0.0 mm
21:21 6.3 °C 1.2 °C 1007.0 hPa Calm     70 % 0.0 mm
21:26 6.2 °C 0.9 °C 1007.0 hPa WSW 2.3 km/h   69 % 0.0 mm
21:31 6.1 °C 1.1 °C 1007.0 hPa Calm     70 % 0.0 mm
21:36 6.0 °C 0.9 °C 1007.0 hPa Calm     70 % 0.0 mm
21:41 6.0 °C 0.9 °C 1007.0 hPa Calm     70 % 0.0 mm
21:46 5.8 °C 0.7 °C 1007.0 hPa Calm     70 % 0.0 mm
21:56 5.7 °C 0.8 °C 1007.0 hPa Calm     71 % 0.0 mm
22:01 5.7 °C 0.8 °C 1007.0 hPa Calm     71 % 0.0 mm
22:06 5.5 °C 0.3 °C 1007.0 hPa WSW 3.7 km/h 3.9 km/h 69 % 0.0 mm
22:11 5.4 °C 0.4 °C 1007.0 hPa WNW 1.9 km/h   70 % 0.0 mm
22:16 5.3 °C 0.4 °C 1007.0 hPa Calm     71 % 0.0 mm
22:21 5.4 °C 0.4 °C 1007.0 hPa WSW 3.7 km/h 3.7 km/h 70 % 0.0 mm
22:26 5.3 °C 0.4 °C 1007.0 hPa SW 1.9 km/h 1.9 km/h 71 % 0.0 mm
22:31 5.3 °C 0.4 °C 1007.0 hPa NW 1.9 km/h 1.9 km/h 71 % 0.0 mm
22:36 5.2 °C 0.6 °C 1007.0 hPa WNW 1.9 km/h   72 % 0.0 mm
22:41 5.1 °C 0.3 °C 1007.0 hPa WSW 3.7 km/h 3.9 km/h 71 % 0.0 mm
22:46 5.0 °C 0.4 °C 1007.0 hPa WSW 1.9 km/h 1.9 km/h 72 % 0.0 mm
22:51 5.0 °C 0.4 °C 1007.0 hPa WSW 2.6 km/h   72 % 0.0 mm
22:56 5.0 °C 0.4 °C 1007.0 hPa WSW 3.2 km/h 3.2 km/h 72 % 0.0 mm
23:01 5.0 °C 0.4 °C 1007.0 hPa West 3.7 km/h 3.7 km/h 72 % 0.0 mm
23:06 5.0 °C 0.4 °C 1007.0 hPa SW 5.8 km/h 5.8 km/h 72 % 0.0 mm
23:11 5.1 °C 0.8 °C 1007.0 hPa West 5.6 km/h 5.6 km/h 74 % 0.0 mm
23:16 5.1 °C 0.8 °C 1007.0 hPa WSW 2.3 km/h 2.3 km/h 74 % 0.0 mm
23:21 5.1 °C 0.8 °C 1007.0 hPa NNW 1.9 km/h 1.9 km/h 74 % 0.0 mm
23:26 5.1 °C 0.8 °C 1007.0 hPa WNW 5.3 km/h 5.3 km/h 74 % 0.0 mm
23:31 5.1 °C 0.8 °C 1007.0 hPa SE 1.9 km/h   74 % 0.0 mm
23:36 5.1 °C 0.8 °C 1007.0 hPa NNE 2.3 km/h 2.3 km/h 74 % 0.0 mm
23:41 4.8 °C 0.6 °C 1007.0 hPa Calm     74 % 0.0 mm
23:46 4.6 °C 0.3 °C 1007.0 hPa WSW 2.6 km/h 2.6 km/h 74 % 0.0 mm
Meteo Sesrovires
Elogis d' Weather Underground - 3.5 mb

Guio original per  Jim McMurry - jmcmurry@mwt.net Adaptat per a la plantilla per  Wim van der Kuil - Leuven-Template.eu

Trobareu la nostra informacio del temps tambe a:

Weather Underground

AWEKAS